Time;durP1;ratioP1;P1;durP2;ratioP2;P2;SDS_P1;SDS_P2;PMS_P1;PMS_P2;Temp;Humidity;BMP_temperature;BMP_pressure;BME280_temperature;BME280_humidity;BME280_pressure;Samples;Min_cycle;Max_cycle;Signal;HPM_P1;HPM_P2
2022/07/09 00:01:05;;;;;;;;;4.00;4.00;;;;;19.39;60.11;100038.50;6340939;20;2753519;-61
2022/07/09 00:03:33;;;;;;;;;5.00;5.00;;;;;19.25;61.04;100041.63;6285103;20;2748335;-61
2022/07/09 00:06:02;;;;;;;;;5.00;5.00;;;;;19.30;60.49;100042.09;6287040;20;2745038;-61
2022/07/09 00:08:30;;;;;;;;;5.50;4.00;;;;;19.20;60.56;100046.66;6285259;20;2746168;-61
2022/07/09 00:10:59;;;;;;;;;7.00;7.00;;;;;19.20;60.87;100052.94;6288348;20;2743360;-59
2022/07/09 00:13:30;;;;;;;;;3.29;3.29;;;;;19.08;60.74;100052.19;6329988;20;3458556;-59
2022/07/09 00:15:58;;;;;;;;;4.00;4.00;;;;;19.15;60.58;100051.66;6315880;20;2742964;-59
2022/07/09 00:18:25;;;;;;;;;6.00;6.00;;;;;18.84;61.90;100049.84;6287441;20;2742966;-60
2022/07/09 00:20:56;;;;;;;;;6.00;5.00;;;;;18.61;62.88;100051.00;6289300;20;2745081;-56
2022/07/09 00:23:24;;;;;;;;;4.00;4.00;;;;;18.73;62.04;100054.50;6284615;20;2749258;-53
2022/07/09 00:25:53;;;;;;;;;7.00;4.60;;;;;18.33;63.64;100058.91;6308620;20;2744007;-55
2022/07/09 00:28:21;;;;;;;;;6.00;5.00;;;;;18.62;62.76;100053.63;6316593;20;2745040;-59
2022/07/09 00:30:49;;;;;;;;;4.00;4.00;;;;;18.40;63.10;100059.22;6286127;20;2740894;-59
2022/07/09 00:33:17;;;;;;;;;5.00;5.00;;;;;18.59;62.96;100048.44;6288418;20;2748163;-60
2022/07/09 00:35:44;;;;;;;;;4.50;4.50;;;;;18.61;62.69;100046.44;6286302;20;2744487;-60
2022/07/09 00:38:12;;;;;;;;;7.00;5.00;;;;;18.58;62.48;100049.44;6287742;20;2743112;-60
2022/07/09 00:40:40;;;;;;;;;5.00;5.00;;;;;18.55;62.69;100051.56;6287498;20;2740884;-60
2022/07/09 00:43:23;;;;;;;;;6.00;6.00;;;;;18.47;62.96;100044.09;6287136;20;2739926;-54
2022/07/09 00:45:52;;;;;;;;;18.00;16.67;;;;;18.41;63.18;100039.22;6284919;20;2831609;-60
2022/07/09 00:48:20;;;;;;;;;42.67;33.67;;;;;18.42;63.09;100040.91;6317253;20;3591920;-56
2022/07/09 00:50:49;;;;;;;;;14.50;11.50;;;;;18.45;62.89;100043.38;6283125;20;2786708;-54
2022/07/09 00:53:24;;;;;;;;;5.00;5.00;;;;;18.31;63.29;100033.72;6287486;20;2748211;-52
2022/07/09 00:55:54;;;;;;;;;7.00;6.00;;;;;18.35;63.29;100037.00;6283648;20;2746143;-53
2022/07/09 00:58:23;;;;;;;;;11.00;9.67;;;;;18.12;63.67;100039.91;6282973;20;2788776;-54
2022/07/09 01:00:56;;;;;;;;;164.56;125.67;;;;;17.88;64.89;100042.06;6306115;20;3724308;-51
2022/07/09 01:03:26;;;;;;;;;132.67;101.00;;;;;18.00;64.87;100040.97;6279744;20;3707604;-58
2022/07/09 01:05:56;;;;;;;;;65.75;46.25;;;;;17.85;65.30;100032.31;6281600;20;4402300;-55
2022/07/09 01:08:26;;;;;;;;;46.67;35.00;;;;;17.81;65.36;100035.44;6311475;20;3624215;-55
2022/07/09 01:10:55;;;;;;;;;22.50;14.50;;;;;18.01;64.46;100030.97;6312601;20;2819055;-54
2022/07/09 01:13:23;;;;;;;;;8.00;8.00;;;;;17.83;65.39;100023.44;6282510;20;2732548;-56
2022/07/09 01:15:52;;;;;;;;;15.80;10.80;;;;;17.63;65.74;100025.09;6304581;20;2789832;-59
2022/07/09 01:18:21;;;;;;;;;18.00;13.50;;;;;17.31;67.13;100025.13;6280846;20;2481512;-59
2022/07/09 01:20:48;;;;;;;;;14.50;12.50;;;;;17.69;65.95;100021.88;6283960;20;2792308;-60
2022/07/09 01:23:18;;;;;;;;;6.00;6.00;;;;;17.87;64.96;100027.59;6283952;20;2744144;-61
2022/07/09 01:25:47;;;;;;;;;6.20;6.00;;;;;17.78;65.17;100015.66;6305756;20;2737771;-59
2022/07/09 01:28:19;;;;;;;;;9.00;8.00;;;;;17.51;66.65;100012.59;6357190;20;3476264;-59
2022/07/09 01:30:47;;;;;;;;;9.00;9.00;;;;;17.52;66.36;100009.75;6312242;20;2754422;-61
2022/07/09 01:33:15;;;;;;;;;16.00;13.50;;;;;17.72;65.42;100013.47;6313500;20;2808624;-60
2022/07/09 01:35:45;;;;;;;;;10.00;8.60;;;;;17.67;65.83;100004.84;6307892;20;2754452;-60
2022/07/09 01:38:16;;;;;;;;;8.00;8.00;;;;;17.79;65.32;100000.25;6324233;20;3457572;-60
2022/07/09 01:40:45;;;;;;;;;6.00;6.00;;;;;17.70;65.35;100001.88;6339562;20;2738826;-61
2022/07/09 01:43:15;;;;;;;;;7.00;7.00;;;;;17.65;65.60;100004.13;6344303;20;2736828;-61
2022/07/09 01:45:45;;;;;;;;;9.40;8.20;;;;;17.45;66.52;99999.53;6345007;20;2747239;-60
2022/07/09 01:48:13;;;;;;;;;6.00;6.00;;;;;17.64;65.97;100002.41;6290110;20;2738823;-59
2022/07/09 01:50:42;;;;;;;;;7.00;7.00;;;;;17.60;66.13;99995.50;6312990;20;2741912;-59
2022/07/09 01:53:12;;;;;;;;;7.20;6.20;;;;;17.51;66.75;99997.16;6344840;20;2746180;-54
2022/07/09 01:55:40;;;;;;;;;4.00;4.00;;;;;17.60;66.41;100000.94;6317061;20;2739834;-55
2022/07/09 01:58:07;;;;;;;;;7.00;7.00;;;;;17.53;66.34;99994.31;6292220;20;2731520;-55
2022/07/09 02:00:35;;;;;;;;;4.50;4.50;;;;;17.44;67.42;99990.53;6287872;20;2750377;-59
2022/07/09 02:03:03;;;;;;;;;5.00;4.00;;;;;17.41;67.46;99989.94;6291567;20;2737797;-58
2022/07/09 02:05:33;;;;;;;;;6.20;5.60;;;;;17.37;67.65;99991.19;6311617;20;2747132;-59
2022/07/09 02:08:04;;;;;;;;;6.43;5.71;;;;;17.38;67.64;99987.47;6362826;20;3451431;-61
2022/07/09 02:10:32;;;;;;;;;6.00;6.00;;;;;17.18;68.44;100000.03;6320469;20;2744018;-59
2022/07/09 02:13:03;;;;;;;;;7.86;7.00;;;;;17.16;68.91;99986.56;6331575;20;3461715;-60
2022/07/09 02:15:31;;;;;;;;;7.00;7.00;;;;;17.28;68.55;99996.41;6320443;20;2742052;-59
2022/07/09 02:18:01;;;;;;;;;6.60;6.40;;;;;17.16;68.88;99996.56;6312274;20;2741914;-60
2022/07/09 02:20:32;;;;;;;;;7.71;6.71;;;;;17.23;68.85;99995.94;6361130;20;3438818;-60
2022/07/09 02:23:00;;;;;;;;;6.50;6.00;;;;;17.10;69.05;99997.94;6318935;20;2744052;-60
2022/07/09 02:25:30;;;;;;;;;9.40;6.40;;;;;17.02;69.58;100000.44;6313049;20;2758589;-53
2022/07/09 02:27:59;;;;;;;;;7.00;7.00;;;;;17.05;69.37;99995.63;6310184;20;2734705;-61
2022/07/09 02:30:29;;;;;;;;;6.00;6.00;;;;;17.21;68.97;99999.75;6342777;20;2735670;-60
2022/07/09 02:32:59;;;;;;;;;6.60;5.80;;;;;17.14;69.01;99999.44;6339126;20;2733981;-57
2022/07/09 02:35:28;;;;;;;;;7.20;7.20;;;;;17.06;69.54;99993.75;6342809;20;2744100;-57
2022/07/09 02:37:59;;;;;;;;;4.57;4.57;;;;;16.92;70.02;99996.78;6361273;20;3459590;-56
2022/07/09 02:40:29;;;;;;;;;3.80;3.80;;;;;17.06;69.83;100002.78;6340151;20;2741944;-55
2022/07/09 02:42:57;;;;;;;;;6.00;6.00;;;;;16.85;70.64;100005.44;6317087;20;2736735;-52
2022/07/09 02:45:24;;;;;;;;;7.00;6.00;;;;;17.03;70.02;100002.16;6291669;20;2737794;-51
2022/07/09 02:47:52;;;;;;;;;7.00;6.00;;;;;16.96;70.48;100000.97;6287580;20;2740896;-54
2022/07/09 02:50:20;;;;;;;;;7.00;7.00;;;;;16.90;70.61;100007.75;6289367;20;2759743;-59
2022/07/09 02:52:48;;;;;;;;;7.00;5.00;;;;;16.83;70.50;100007.41;6283079;20;2752453;-59
2022/07/09 02:55:16;;;;;;;;;5.00;5.00;;;;;16.92;70.45;100007.63;6288733;20;2735695;-59
2022/07/09 02:57:44;;;;;;;;;6.00;6.00;;;;;17.00;70.67;100005.13;6287995;20;2739987;-58
2022/07/09 03:00:12;;;;;;;;;5.00;5.00;;;;;16.96;70.58;100001.81;6286530;20;2747114;-59
2022/07/09 03:02:40;;;;;;;;;6.00;6.00;;;;;16.93;70.86;100004.81;6288001;20;2735701;-59
2022/07/09 03:05:08;;;;;;;;;6.00;5.50;;;;;17.14;70.38;100007.56;6284718;20;2736701;-59
2022/07/09 03:07:37;;;;;;;;;7.00;6.00;;;;;16.97;70.61;100013.53;6289276;20;2740408;-59
2022/07/09 03:10:05;;;;;;;;;7.00;5.00;;;;;17.07;70.46;100003.66;6286929;20;2745098;-59
2022/07/09 03:12:33;;;;;;;;;6.00;5.00;;;;;17.07;70.21;100009.94;6283646;20;2748166;-59
2022/07/09 03:15:01;;;;;;;;;4.50;4.50;;;;;17.07;70.28;99999.06;6288635;20;2739877;-59
2022/07/09 03:17:29;;;;;;;;;7.00;5.00;;;;;17.07;70.58;100003.66;6286518;20;2742957;-58
2022/07/09 03:19:58;;;;;;;;;8.00;6.40;;;;;17.00;70.94;100007.84;6310490;20;2728377;-60
2022/07/09 03:22:26;;;;;;;;;3.00;3.00;;;;;17.18;69.76;100006.31;6317877;20;2744151;-60
2022/07/09 03:24:54;;;;;;;;;7.00;7.00;;;;;17.25;70.00;100006.66;6287075;20;2735725;-59
2022/07/09 03:27:21;;;;;;;;;6.00;6.00;;;;;17.36;69.50;100008.47;6285368;20;2739836;-59
2022/07/09 03:29:50;;;;;;;;;7.00;5.50;;;;;17.29;69.61;100003.53;6285586;20;2746160;-58
2022/07/09 03:32:17;;;;;;;;;7.00;7.00;;;;;17.41;69.49;100011.66;6289265;20;2735668;-52
2022/07/09 03:34:45;;;;;;;;;6.00;6.00;;;;;17.36;69.56;100016.63;6285789;20;2738833;-59
2022/07/09 03:37:16;;;;;;;;;8.00;7.14;;;;;17.51;69.09;100009.88;6325582;20;3455507;-59
2022/07/09 03:39:44;;;;;;;;;4.00;4.00;;;;;17.46;68.91;100020.28;6318329;20;2740955;-57
2022/07/09 03:42:13;;;;;;;;;5.00;5.00;;;;;17.63;68.27;100027.81;6289945;20;2750378;-58
2022/07/09 03:44:44;;;;;;;;;6.29;6.29;;;;;17.63;68.77;100021.53;6326468;20;3462280;-59
2022/07/09 03:47:12;;;;;;;;;8.00;6.00;;;;;17.65;68.59;100019.56;6316304;20;2742346;-54
2022/07/09 03:49:42;;;;;;;;;5.80;5.00;;;;;17.61;68.75;100012.66;6309558;20;2739859;-57
2022/07/09 03:52:13;;;;;;;;;5.71;5.29;;;;;17.78;68.00;100023.78;6356927;20;3449298;-60
2022/07/09 03:54:49;;;;;;;;;5.00;4.00;;;;;17.74;68.36;100022.31;6317222;20;2751298;-60
2022/07/09 03:57:16;;;;;;;;;6.00;6.00;;;;;17.74;68.42;100018.75;6286983;20;2741013;-58
2022/07/09 03:59:46;;;;;;;;;6.00;5.60;;;;;17.74;68.13;100016.88;6309785;20;2736785;-55
2022/07/09 04:02:17;;;;;;;;;6.71;5.71;;;;;17.76;67.97;100022.22;6359051;20;3457217;-54
2022/07/09 04:04:45;;;;;;;;;7.00;5.50;;;;;17.71;68.38;100019.03;6317231;20;2743024;-53
2022/07/09 04:07:13;;;;;;;;;6.00;5.00;;;;;17.88;67.71;100021.19;6284688;20;2748195;-60
2022/07/09 04:09:43;;;;;;;;;8.60;6.60;;;;;17.69;68.04;100021.88;6310020;20;2746121;-60
2022/07/09 04:12:12;;;;;;;;;6.80;6.00;;;;;17.85;67.48;100015.13;6338230;20;2745081;-59
2022/07/09 04:14:42;;;;;;;;;6.40;6.40;;;;;18.01;66.79;100026.41;6340911;20;2737761;-54
2022/07/09 04:17:11;;;;;;;;;5.80;5.80;;;;;18.03;66.91;100021.69;6335406;20;2746117;-60
2022/07/09 04:19:41;;;;;;;;;6.20;6.20;;;;;18.10;66.17;100022.88;6340579;20;2738806;-62
2022/07/09 04:22:09;;;;;;;;;7.00;6.00;;;;;18.26;66.08;100021.53;6317807;20;2740898;-61
2022/07/09 04:24:36;;;;;;;;;5.00;5.00;;;;;18.32;65.59;100019.13;6283929;20;2748203;-61
2022/07/09 04:27:05;;;;;;;;;5.50;4.00;;;;;18.30;65.71;100025.69;6284786;20;2746140;-59
2022/07/09 04:29:34;;;;;;;;;6.00;6.00;;;;;18.38;65.34;100023.19;6307305;20;2741947;-58
2022/07/09 04:32:06;;;;;;;;;8.00;6.29;;;;;18.41;65.70;100028.34;6356616;20;3461745;-56
2022/07/09 04:34:34;;;;;;;;;7.50;6.00;;;;;18.47;65.14;100025.06;6314776;20;2740890;-60
2022/07/09 04:37:02;;;;;;;;;9.00;7.00;;;;;18.58;64.99;100024.94;6291014;20;2742522;-60
2022/07/09 04:39:32;;;;;;;;;7.00;5.40;;;;;18.70;64.58;100020.28;6310428;20;2735664;-60
2022/07/09 04:42:03;;;;;;;;;7.00;6.00;;;;;18.73;64.15;100021.88;6340972;20;2745130;-60
2022/07/09 04:44:31;;;;;;;;;4.50;4.50;;;;;18.84;63.89;100019.91;6322150;20;2735682;-59
2022/07/09 04:46:58;;;;;;;;;6.50;6.50;;;;;19.29;61.96;100024.00;6284745;20;2746220;-60
2022/07/09 04:49:28;;;;;;;;;5.80;5.80;;;;;19.36;61.89;100017.00;6310420;20;2739883;-60
2022/07/09 04:51:57;;;;;;;;;5.80;5.00;;;;;19.21;62.40;100026.56;6306244;20;2736796;-59
2022/07/09 04:54:27;;;;;;;;;6.00;6.00;;;;;19.50;61.60;100024.72;6340373;20;2737936;-59
2022/07/09 04:56:58;;;;;;;;;6.57;5.71;;;;;19.67;60.66;100022.34;6354075;20;3462268;-60
2022/07/09 04:59:25;;;;;;;;;6.50;5.00;;;;;19.93;59.81;100028.91;6316958;20;2731541;-60
2022/07/09 05:01:54;;;;;;;;;6.00;6.00;;;;;20.15;58.58;100030.41;6286216;20;2738791;-60
2022/07/09 05:04:22;;;;;;;;;6.00;5.00;;;;;20.28;57.95;100027.38;6288677;20;2734669;-60
2022/07/09 05:06:49;;;;;;;;;6.00;5.00;;;;;20.35;57.60;100024.88;6284737;20;2738859;-60
2022/07/09 05:09:17;;;;;;;;;5.00;5.00;;;;;20.31;57.68;100032.50;6290270;20;2730591;-60
2022/07/09 05:11:45;;;;;;;;;5.00;5.00;;;;;20.37;57.29;100033.78;6288937;20;2738811;-60
2022/07/09 05:14:14;;;;;;;;;7.00;7.00;;;;;20.70;56.66;100043.31;6285032;20;2741919;-60
2022/07/09 05:16:44;;;;;;;;;7.00;5.00;;;;;20.65;55.82;100037.44;6341931;20;2730452;-60
2022/07/09 05:19:14;;;;;;;;;4.00;4.00;;;;;20.51;56.36;100044.22;6344085;20;2746091;-59
2022/07/09 05:21:44;;;;;;;;;6.80;5.00;;;;;20.63;55.71;100047.63;6311976;20;2730461;-60
2022/07/09 05:24:12;;;;;;;;;6.00;6.00;;;;;20.60;55.69;100042.50;6324065;20;2746081;-60
2022/07/09 05:26:41;;;;;;;;;8.40;7.00;;;;;20.82;54.79;100053.00;6341709;20;2734634;-60
2022/07/09 05:29:12;;;;;;;;;6.00;6.00;;;;;20.94;55.31;100052.81;6348021;20;2746160;-60
2022/07/09 05:31:42;;;;;;;;;6.40;6.40;;;;;20.97;54.97;100041.59;6343563;20;2734622;-60
2022/07/09 05:34:13;;;;;;;;;7.43;7.43;;;;;20.97;54.51;100052.50;6359560;20;3448148;-61
2022/07/09 05:36:42;;;;;;;;;8.00;6.80;;;;;20.95;55.19;100046.34;6340477;20;2738848;-60
2022/07/09 05:39:12;;;;;;;;;5.20;5.00;;;;;20.98;55.54;100032.38;6344046;20;2743102;-60
2022/07/09 05:41:41;;;;;;;;;5.20;5.20;;;;;21.02;55.02;100042.00;6342967;20;2741914;-59
2022/07/09 05:44:11;;;;;;;;;6.80;6.60;;;;;21.26;54.77;100039.50;6344132;20;2740984;-59
2022/07/09 05:46:44;;;;;;;;;6.80;6.40;;;;;21.08;54.93;100040.50;6341348;20;2738786;-59
2022/07/09 05:49:13;;;;;;;;;7.20;5.20;;;;;20.98;54.07;100046.03;6342252;20;2728498;-59
2022/07/09 05:51:43;;;;;;;;;6.40;6.40;;;;;20.85;54.45;100038.19;6343540;20;2730475;-58
2022/07/09 05:54:12;;;;;;;;;7.60;5.60;;;;;20.97;54.77;100044.31;6341514;20;2732639;-57
2022/07/09 05:56:42;;;;;;;;;5.40;5.40;;;;;20.97;54.89;100036.97;6341347;20;2746085;-58
2022/07/09 05:59:12;;;;;;;;;6.00;6.00;;;;;21.28;53.61;100031.19;6311821;20;2741914;-58
2022/07/09 06:01:42;;;;;;;;;4.40;4.40;;;;;22.06;51.60;100035.97;6341550;20;2737803;-59
2022/07/09 06:04:12;;;;;;;;;7.20;6.00;;;;;22.04;51.29;100027.94;6344280;20;2748186;-58
2022/07/09 06:06:41;;;;;;;;;7.00;7.00;;;;;21.83;51.67;100032.91;6287567;20;2731513;-58
2022/07/09 06:09:10;;;;;;;;;6.60;6.60;;;;;21.60;51.89;100030.66;6340448;20;2728414;-59
2022/07/09 06:11:40;;;;;;;;;6.00;6.00;;;;;21.21;53.31;100030.06;6340407;20;2742964;-58
2022/07/09 06:14:10;;;;;;;;;5.20;5.20;;;;;21.33;53.54;100038.88;6342004;20;2738859;-57
2022/07/09 06:16:40;;;;;;;;;7.00;6.00;;;;;21.38;52.68;100036.59;6340238;20;2735920;-59
2022/07/09 06:19:10;;;;;;;;;7.00;7.00;;;;;21.28;52.30;100039.38;6341872;20;2732627;-59
2022/07/09 06:21:40;;;;;;;;;7.00;7.00;;;;;21.12;53.29;100036.47;6341666;20;2737778;-59
2022/07/09 06:24:09;;;;;;;;;7.00;6.80;;;;;20.93;54.03;100041.03;6341779;20;2735695;-59
2022/07/09 06:26:39;;;;;;;;;7.00;6.00;;;;;21.33;53.07;100041.63;6338793;20;2735725;-59
2022/07/09 06:29:08;;;;;;;;;6.40;6.40;;;;;21.19;52.75;100043.00;6343102;20;2732674;-59
2022/07/09 06:31:40;;;;;;;;;8.00;7.00;;;;;20.99;53.08;100047.75;6315702;20;2733726;-59
2022/07/09 06:34:11;;;;;;;;;8.00;5.20;;;;;21.05;53.22;100048.00;6341492;20;2741411;-60
2022/07/09 06:36:44;;;;;;;;;10.00;7.80;;;;;20.88;53.26;100050.66;6340661;20;2756543;-59
2022/07/09 06:42:08;;;;;;;;;8.00;6.60;;;;;21.88;51.22;100056.03;6310142;20;2739841;-59
2022/07/09 06:44:37;;;;;;;;;7.00;5.67;;;;;21.74;51.43;100050.25;6320141;20;2734642;-60
2022/07/09 06:47:07;;;;;;;;;7.00;6.00;;;;;22.05;51.00;100048.78;6338102;20;2737812;-60
2022/07/09 06:49:37;;;;;;;;;5.40;5.40;;;;;21.85;51.46;100044.53;6342631;20;2733625;-60
2022/07/09 06:52:07;;;;;;;;;9.00;9.00;;;;;22.07;51.13;100049.50;6342151;20;2753569;-59
2022/07/09 06:54:36;;;;;;;;;6.00;6.00;;;;;22.45;50.48;100039.16;6284061;20;2743360;-59
2022/07/09 06:57:06;;;;;;;;;8.00;6.20;;;;;22.32;50.29;100047.81;6340315;20;2731530;-59
2022/07/09 06:59:35;;;;;;;;;7.00;7.00;;;;;22.29;50.36;100047.28;6317580;20;2728522;-60
2022/07/09 07:02:05;;;;;;;;;6.00;6.00;;;;;22.01;50.56;100044.69;6343116;20;2739834;-59
2022/07/09 07:04:35;;;;;;;;;5.40;5.40;;;;;22.41;50.11;100042.38;6341398;20;2734623;-59
2022/07/09 07:07:05;;;;;;;;;9.00;7.80;;;;;22.41;50.96;100039.63;6339820;20;2742963;-59
2022/07/09 07:09:34;;;;;;;;;7.20;7.20;;;;;22.62;49.98;100044.72;6309881;20;2734738;-58
2022/07/09 07:12:04;;;;;;;;;6.00;6.00;;;;;22.11;51.34;100039.94;6318462;20;2730558;-60
2022/07/09 07:14:32;;;;;;;;;9.00;8.00;;;;;22.13;50.40;100037.91;6311453;20;2756499;-59
2022/07/09 07:17:02;;;;;;;;;7.00;7.00;;;;;21.73;50.91;100034.88;6338764;20;2728386;-60
2022/07/09 07:19:32;;;;;;;;;7.20;6.60;;;;;21.90;51.00;100040.28;6341394;20;2733621;-58
2022/07/09 07:22:02;;;;;;;;;7.00;5.00;;;;;21.73;51.49;100040.34;6338813;20;2748183;-58
2022/07/09 07:24:31;;;;;;;;;7.00;6.80;;;;;23.11;48.31;100040.31;6310265;20;2732629;-57
2022/07/09 07:27:01;;;;;;;;;9.60;8.00;;;;;22.63;49.67;100038.25;6337757;20;2768990;-56
2022/07/09 07:29:30;;;;;;;;;6.00;6.00;;;;;23.94;46.51;100044.06;6310028;20;2746087;-58
2022/07/09 07:32:02;;;;;;;;;7.00;7.00;;;;;25.05;44.13;100044.13;6332864;20;1793058;-56
2022/07/09 07:34:30;;;;;;;;;6.00;4.33;;;;;25.60;42.36;100048.63;6315650;20;2734974;-58
2022/07/09 07:36:59;;;;;;;;;7.50;7.00;;;;;25.71;41.48;100054.75;6314187;20;2726344;-57
2022/07/09 07:39:27;;;;;;;;;1.67;1.67;;;;;25.78;41.03;100040.06;6318040;20;2735659;-55
2022/07/09 07:41:58;;;;;;;;;5.80;5.80;;;;;25.27;41.24;100042.47;6340029;20;2736861;-58
2022/07/09 07:44:28;;;;;;;;;9.00;7.00;;;;;24.97;41.41;100044.16;6289972;20;2746085;-59
2022/07/09 07:46:58;;;;;;;;;7.00;7.00;;;;;26.17;38.86;100043.69;6339935;20;2625738;-59
2022/07/09 07:49:27;;;;;;;;;5.60;5.60;;;;;26.00;39.02;100043.88;6343705;20;2742015;-58
2022/07/09 07:51:57;;;;;;;;;7.00;7.00;;;;;26.50;39.14;100039.56;6309360;20;2744005;-59
2022/07/09 07:54:26;;;;;;;;;7.20;7.20;;;;;25.95;38.95;100034.47;6307212;20;2732601;-59
2022/07/09 07:56:56;;;;;;;;;6.40;6.40;;;;;26.34;38.91;100031.50;6339611;20;2737767;-58
2022/07/09 07:59:25;;;;;;;;;2.80;2.80;;;;;26.64;39.34;100028.78;6311998;20;2739852;-59
2022/07/09 08:01:55;;;;;;;;;6.00;6.00;;;;;26.16;39.60;100023.59;6345188;20;2739992;-56
2022/07/09 08:04:24;;;;;;;;;7.40;7.40;;;;;26.38;39.41;100027.31;6313344;20;2750287;-57
2022/07/09 08:06:53;;;;;;;;;7.33;7.00;;;;;27.22;38.47;100026.16;6285231;20;2746080;-57
2022/07/09 08:09:21;;;;;;;;;9.00;8.00;;;;;26.93;38.51;100031.50;6319182;20;2749232;-61
2022/07/09 08:11:51;;;;;;;;;7.60;5.80;;;;;27.00;38.46;100041.75;6343289;20;2746143;-61
2022/07/09 08:14:20;;;;;;;;;6.00;6.00;;;;;26.48;38.50;100027.88;6286451;20;2738845;-61
2022/07/09 08:16:48;;;;;;;;;7.00;7.00;;;;;27.15;37.15;100031.56;6318170;20;2741979;-61
2022/07/09 08:19:18;;;;;;;;;5.00;5.00;;;;;26.57;37.59;100025.06;6343296;20;2748237;-60
2022/07/09 08:21:46;;;;;;;;;6.00;6.00;;;;;26.75;36.86;100022.78;6285720;20;2735753;-61
2022/07/09 08:24:15;;;;;;;;;8.67;7.00;;;;;26.92;37.30;100032.56;6319121;20;2737851;-60
2022/07/09 08:26:44;;;;;;;;;4.20;4.20;;;;;26.90;36.32;100029.13;6338668;20;2748243;-61
2022/07/09 08:29:12;;;;;;;;;4.00;4.00;;;;;26.35;37.71;100018.56;6291069;20;2738844;-61
2022/07/09 08:31:42;;;;;;;;;2.20;2.20;;;;;26.60;37.10;100010.94;6341581;20;2756577;-60
2022/07/09 08:34:12;;;;;;;;;8.20;7.20;;;;;26.71;37.73;100013.19;6311777;20;2744001;-54
2022/07/09 08:36:40;;;;;;;;;10.00;9.00;;;;;26.57;36.75;100011.28;6283296;20;2772151;-53
2022/07/09 08:39:08;;;;;;;;;5.00;5.00;;;;;27.24;36.07;100013.03;6320027;20;2736806;-50
2022/07/09 08:41:38;;;;;;;;;7.80;5.40;;;;;27.62;33.71;100010.91;6342211;20;2731544;-51
2022/07/09 08:44:12;;;;;;;;;6.00;6.00;;;;;27.39;35.22;100005.56;6311996;20;2733621;-58
2022/07/09 08:46:41;;;;;;;;;6.67;6.00;;;;;27.94;34.68;100009.50;6316894;20;2745146;-58
2022/07/09 08:49:14;;;;;;;;;5.00;5.00;;;;;27.78;35.13;100010.63;6316369;20;2735734;-58
2022/07/09 08:51:45;;;;;;;;;5.20;5.20;;;;;27.67;36.07;100002.84;6345488;20;2734657;-58
2022/07/09 08:54:15;;;;;;;;;6.00;6.00;;;;;28.94;34.02;100004.63;6288730;20;2747176;-60
2022/07/09 08:56:45;;;;;;;;;4.00;4.00;;;;;28.07;34.26;100006.00;6344623;20;2732616;-59
2022/07/09 08:59:13;;;;;;;;;6.67;5.33;;;;;28.05;34.71;100001.75;6289489;20;2741959;-58
2022/07/09 09:01:43;;;;;;;;;5.60;5.60;;;;;28.57;33.76;99998.50;6349053;20;2741913;-60
2022/07/09 09:04:11;;;;;;;;;7.33;7.33;;;;;28.70;34.57;100003.25;6291800;20;2746085;-62
2022/07/09 09:06:41;;;;;;;;;7.67;7.33;;;;;29.00;33.02;100008.47;6320281;20;2737783;-62
2022/07/09 09:09:20;;;;;;;;;9.67;8.00;;;;;28.74;33.47;100009.22;6318571;20;2767058;-60
2022/07/09 09:11:50;;;;;;;;;5.33;5.00;;;;;29.23;32.68;99991.59;6324681;20;2742946;-65
2022/07/09 09:14:22;;;;;;;;;6.67;5.00;;;;;28.50;33.77;99994.84;6323528;20;2744117;-61
2022/07/09 09:16:50;;;;;;;;;7.00;7.00;;;;;27.36;35.44;99984.75;6321365;20;2735733;-66
2022/07/09 09:19:22;;;;;;;;;6.00;6.00;;;;;27.38;34.48;99987.28;6324360;20;2733725;-63
2022/07/09 09:21:53;;;;;;;;;7.60;7.60;;;;;26.79;36.47;99977.28;6346026;20;2756499;-63
2022/07/09 09:24:25;;;;;;;;;6.00;5.40;;;;;26.48;37.57;99975.56;6318275;20;2734637;-65
2022/07/09 09:27:01;;;;;;;;;7.00;6.00;;;;;25.93;37.96;99974.09;6319100;20;2735766;-65
2022/07/09 09:29:31;;;;;;;;;8.20;6.40;;;;;26.09;37.65;99974.97;6346547;20;2744029;-54
2022/07/09 09:32:11;;;;;;;;;5.80;5.80;;;;;26.26;37.75;99968.25;6315398;20;2735692;-54
2022/07/09 09:34:43;;;;;;;;;6.80;6.80;;;;;25.98;38.46;99963.38;6315660;20;2754661;-52
2022/07/09 09:37:11;;;;;;;;;9.00;6.00;;;;;26.24;37.86;99964.84;6290795;20;2731954;-59
2022/07/09 09:39:51;;;;;;;;;8.00;8.00;;;;;27.91;35.43;99975.91;6347683;20;1853421;-59
2022/07/09 09:42:20;;;;;;;;;8.00;6.00;;;;;26.76;36.80;99966.63;6296355;20;2734728;-59
2022/07/09 09:44:51;;;;;;;;;7.20;6.40;;;;;26.73;37.49;99967.03;6343809;20;2740909;-59
2022/07/09 09:47:24;;;;;;;;;6.00;6.00;;;;;26.87;37.57;99966.13;6310304;20;2746092;-60
2022/07/09 09:49:54;;;;;;;;;6.40;5.80;;;;;26.27;38.16;99962.56;6315750;20;2745041;-59
2022/07/09 09:52:26;;;;;;;;;6.00;6.00;;;;;26.08;38.04;99962.28;6314006;20;2744180;-59
2022/07/09 09:54:56;;;;;;;;;5.80;5.80;;;;;25.95;38.39;99958.25;6314916;20;2746174;-59
2022/07/09 09:57:27;;;;;;;;;7.80;7.00;;;;;25.91;38.49;99961.56;6308846;20;2734701;-59
2022/07/09 09:59:57;;;;;;;;;7.00;7.00;;;;;25.96;38.39;99965.50;6344462;20;2750291;-59
2022/07/09 10:02:26;;;;;;;;;7.67;7.67;;;;;26.59;36.94;99963.22;6297398;20;2742466;-59
2022/07/09 10:04:57;;;;;;;;;6.60;6.60;;;;;28.22;33.87;99968.06;6344616;20;2746521;-59
2022/07/09 10:07:27;;;;;;;;;5.80;5.20;;;;;27.54;35.10;99958.59;6312420;20;2736762;-59
2022/07/09 10:09:58;;;;;;;;;7.50;6.00;;;;;26.82;36.74;99952.09;6294050;20;2617958;-59
2022/07/09 10:12:29;;;;;;;;;2.80;0.60;;;;;26.91;36.71;99952.84;6344968;20;2731506;-59
2022/07/09 10:14:58;;;;;;;;;7.67;6.00;;;;;26.86;37.55;99949.81;6323177;20;2727348;-60
2022/07/09 10:17:39;;;;;;;;;8.00;6.60;;;;;26.81;37.46;99949.53;6340632;20;2739955;-60
2022/07/09 10:20:11;;;;;;;;;7.00;7.00;;;;;26.58;37.65;99953.28;6314586;20;2741947;-60
2022/07/09 10:22:45;;;;;;;;;6.00;6.00;;;;;28.15;35.00;99947.88;6291258;20;2744030;-59
2022/07/09 10:25:55;;;;;;;;;6.00;6.00;;;;;28.99;33.91;99949.56;6344820;20;2746087;-60
2022/07/09 10:28:27;;;;;;;;;5.33;5.33;;;;;26.80;35.30;99945.91;6290256;20;2738826;-60
2022/07/09 10:31:21;;;;;;;;;6.00;6.00;;;;;26.38;36.36;99936.44;6346372;20;2735710;-62
2022/07/09 10:34:07;;;;;;;;;7.75;6.50;;;;;26.32;37.02;99930.84;6316388;20;2745086;-60
2022/07/09 10:36:36;;;;;;;;;8.00;7.00;;;;;26.33;37.50;99935.31;6286235;20;2730512;-61
2022/07/09 10:39:12;;;;;;;;;8.00;6.33;;;;;27.64;36.22;99944.47;6319923;20;2731525;-62
2022/07/09 10:41:41;;;;;;;;;8.67;7.00;;;;;28.52;34.49;99947.69;6321655;20;2740053;-62
2022/07/09 10:44:10;;;;;;;;;5.00;5.00;;;;;26.76;35.97;99928.06;6342871;20;2739908;-64
2022/07/09 10:46:39;;;;;;;;;6.33;5.00;;;;;26.65;36.53;99928.59;6318135;20;2734681;-64
2022/07/09 10:49:08;;;;;;;;;6.20;6.20;;;;;26.39;38.06;99921.66;6341655;20;2748276;-64
2022/07/09 10:51:40;;;;;;;;;6.20;6.20;;;;;26.27;37.25;99917.66;6313121;20;2724215;-63
2022/07/09 10:54:17;;;;;;;;;6.40;6.40;;;;;25.91;38.38;99926.69;6341053;20;2740272;-61
2022/07/09 10:56:47;;;;;;;;;4.40;4.40;;;;;26.00;38.40;99916.44;6313326;20;2730436;-61
2022/07/09 10:59:19;;;;;;;;;5.67;5.67;;;;;26.15;38.52;99916.44;6318505;20;2740864;-60
2022/07/09 11:01:48;;;;;;;;;8.00;7.00;;;;;25.86;38.67;99925.50;6319335;20;2748169;-61
2022/07/09 11:04:31;;;;;;;;;8.00;8.00;;;;;25.64;38.41;99917.09;6317862;20;2746074;-61
2022/07/09 11:07:01;;;;;;;;;11.67;11.67;;;;;25.56;38.77;99909.78;6317801;20;2483604;-62
2022/07/09 11:09:30;;;;;;;;;12.67;12.00;;;;;25.58;38.64;99917.84;6318026;20;3510713;-61
2022/07/09 11:11:58;;;;;;;;;12.00;12.00;;;;;25.62;38.94;99920.06;6315817;20;3515958;-61
2022/07/09 11:14:29;;;;;;;;;11.00;9.60;;;;;25.30;39.51;99909.31;6307143;20;2789924;-61
2022/07/09 11:17:01;;;;;;;;;8.67;7.33;;;;;25.29;39.78;99907.63;6289326;20;2745039;-61
2022/07/09 11:19:31;;;;;;;;;8.00;7.67;;;;;25.60;39.23;99907.53;6320737;20;2754411;-61
2022/07/09 11:22:03;;;;;;;;;8.67;8.67;;;;;26.03;38.43;99905.88;6326048;20;2743997;-61
2022/07/09 11:24:33;;;;;;;;;9.60;8.00;;;;;25.91;38.13;99904.66;6343940;20;2735697;-61